Academia, Pennsylvania
Current Conditions -  °F | °C
As of 1:15 AM on Saturday 01 Nov 2014 (Local Time) from KUNV Reporting Station
Overcast Overcast  
Wind Chill: 39°   Ceiling: 5500
Heat Index: 42°   Visibility: 10mi
Dew Point: 35°   Wind: 5mph
Humidity: 75%   Direction: 20°NNE
Pressure: 29.87"   Gusts: NA
Location:  40.4991°N, 77.4687°W
Report Text: KUNV 010515Z AUTO 02004KT 10SM SCT048 OVC055 06/02 A2987 RMK AO2 T00570016
Loading
Personal Weather Stations






























Interactive Weather Map
Tropical Storm Tracking
New forecast layout! Learn more

10-Day Weather Forecast

Advertisements
Track Severe Weather on mobile